Time;durP1;ratioP1;P1;durP2;ratioP2;P2;SDS_P1;SDS_P2;PMS_P1;PMS_P2;Temp;Humidity;BMP_temperature;BMP_pressure;BME280_temperature;BME280_humidity;BME280_pressure;Samples;Min_cycle;Max_cycle;Signal;HPM_P1;HPM_P2
2021/10/18 00:02:12;;;;;;;;;;;13.30;99.90;;;;;;5096396;28;20310;-75
2021/10/18 00:04:39;;;;;;;;;;;13.20;99.90;;;;;;5096244;28;19924;-75
2021/10/18 00:07:07;;;;;;;;;;;13.20;99.90;;;;;;5096515;28;20019;-75
2021/10/18 00:09:37;;;;;;;;;;;13.20;99.90;;;;;;5096328;28;20352;-75
2021/10/18 00:12:06;;;;;;;;;;;13.10;99.90;;;;;;5096475;28;20420;-75
2021/10/18 00:14:39;;;;;;;;;;;13.10;99.90;;;;;;5096293;28;19924;-75
2021/10/18 00:17:07;;;;;;;;;;;13.10;99.90;;;;;;5096227;28;20248;-75
2021/10/18 00:19:35;;;;;;;;;;;13.10;99.90;;;;;;5096223;28;19924;-76
2021/10/18 00:22:03;;;;;;;;;;;13.10;99.90;;;;;;5096126;28;19935;-76
2021/10/18 00:24:31;;;;;;;;;;;13.00;99.90;;;;;;5096138;28;20092;-76
2021/10/18 00:26:59;;;;;;;;;;;13.00;99.90;;;;;;5095990;28;19924;-75
2021/10/18 00:29:27;;;;;;;;;;;13.00;99.90;;;;;;5096128;28;19932;-77
2021/10/18 00:31:57;;;;;;;;;;;12.90;99.90;;;;;;5096118;28;19934;-78
2021/10/18 00:34:24;;;;;;;;;;;12.90;99.90;;;;;;5095988;28;19934;-79
2021/10/18 00:36:51;;;;;;;;;;;12.90;99.90;;;;;;5095889;28;19950;-77
2021/10/18 00:39:17;;;;;;;;;;;12.80;99.90;;;;;;5095558;28;20256;-77
2021/10/18 00:41:44;;;;;;;;;;;12.80;99.90;;;;;;5095820;28;19924;-78
2021/10/18 00:44:11;;;;;;;;;;;12.80;99.90;;;;;;5095798;28;19946;-77
2021/10/18 00:46:38;;;;;;;;;;;12.80;99.90;;;;;;5095897;28;20247;-77
2021/10/18 00:49:06;;;;;;;;;;;12.70;99.90;;;;;;5095611;28;19934;-74
2021/10/18 00:51:33;;;;;;;;;;;12.70;99.90;;;;;;5095597;28;19931;-76
2021/10/18 00:54:00;;;;;;;;;;;12.70;99.90;;;;;;5095392;28;20655;-74
2021/10/18 00:56:27;;;;;;;;;;;12.70;99.90;;;;;;5095515;28;19934;-74
2021/10/18 00:58:54;;;;;;;;;;;12.70;99.90;;;;;;5094926;28;19924;-74
2021/10/18 01:01:21;;;;;;;;;;;12.60;99.90;;;;;;5095571;28;19934;-74
2021/10/18 01:03:47;;;;;;;;;;;12.60;99.90;;;;;;5095386;28;20410;-74
2021/10/18 01:06:16;;;;;;;;;;;12.60;99.90;;;;;;5095156;28;19924;-74
2021/10/18 01:08:43;;;;;;;;;;;12.50;99.90;;;;;;5095044;28;19935;-74
2021/10/18 01:11:09;;;;;;;;;;;12.50;99.90;;;;;;5095605;28;19935;-74
2021/10/18 01:13:36;;;;;;;;;;;12.50;99.90;;;;;;5095515;28;19947;-74
2021/10/18 01:16:05;;;;;;;;;;;12.50;99.90;;;;;;5095237;28;20348;-74
2021/10/18 01:18:32;;;;;;;;;;;12.40;99.90;;;;;;5095074;28;20340;-74
2021/10/18 01:21:01;;;;;;;;;;;12.40;99.90;;;;;;5095138;28;19924;-74
2021/10/18 01:23:27;;;;;;;;;;;12.40;99.90;;;;;;5095189;28;19924;-74
2021/10/18 01:25:54;;;;;;;;;;;12.40;99.90;;;;;;5095333;28;19931;-74
2021/10/18 01:28:21;;;;;;;;;;;12.40;99.90;;;;;;5095182;28;20468;-74
2021/10/18 01:30:48;;;;;;;;;;;12.40;99.90;;;;;;5094992;28;19924;-74
2021/10/18 01:33:15;;;;;;;;;;;12.40;99.90;;;;;;5095212;28;19924;-74
2021/10/18 01:35:42;;;;;;;;;;;12.30;99.90;;;;;;5094983;28;19924;-74
2021/10/18 01:38:10;;;;;;;;;;;12.40;99.90;;;;;;5094800;28;20260;-74
2021/10/18 01:40:37;;;;;;;;;;;12.30;99.90;;;;;;5095071;28;19975;-74
2021/10/18 01:43:03;;;;;;;;;;;12.30;99.90;;;;;;5095005;28;19925;-74
2021/10/18 01:45:30;;;;;;;;;;;12.30;99.90;;;;;;5095178;28;19932;-74
2021/10/18 01:47:57;;;;;;;;;;;12.30;99.90;;;;;;5094902;28;20307;-74
2021/10/18 01:50:25;;;;;;;;;;;12.20;99.90;;;;;;5094807;28;19930;-74
2021/10/18 01:52:52;;;;;;;;;;;12.20;99.90;;;;;;5094949;28;19934;-74
2021/10/18 01:55:20;;;;;;;;;;;12.20;99.90;;;;;;5094943;28;20355;-74
2021/10/18 01:57:47;;;;;;;;;;;12.20;99.90;;;;;;5094734;28;19924;-74
2021/10/18 02:00:14;;;;;;;;;;;12.20;99.90;;;;;;5094687;28;19924;-74
2021/10/18 02:02:42;;;;;;;;;;;12.20;99.90;;;;;;5094704;28;19928;-74
2021/10/18 02:05:09;;;;;;;;;;;12.20;99.90;;;;;;5095036;28;20014;-74
2021/10/18 02:07:36;;;;;;;;;;;12.10;99.90;;;;;;5095030;28;19934;-75
2021/10/18 02:10:03;;;;;;;;;;;12.10;99.90;;;;;;5094896;28;19924;-74
2021/10/18 02:12:31;;;;;;;;;;;12.10;99.90;;;;;;5094716;28;19928;-74
2021/10/18 02:14:58;;;;;;;;;;;12.10;99.90;;;;;;5094725;28;19924;-74
2021/10/18 02:17:25;;;;;;;;;;;12.10;99.90;;;;;;5094657;28;19931;-74
2021/10/18 02:19:52;;;;;;;;;;;12.00;99.90;;;;;;5097739;28;20355;-74
2021/10/18 02:22:19;;;;;;;;;;;12.00;99.90;;;;;;5098465;28;19934;-74
2021/10/18 02:24:45;;;;;;;;;;;12.00;99.90;;;;;;5098653;28;19934;-74
2021/10/18 02:27:12;;;;;;;;;;;12.00;99.90;;;;;;5098532;28;19928;-74
2021/10/18 02:29:40;;;;;;;;;;;12.00;99.90;;;;;;5098308;28;20370;-75
2021/10/18 02:32:07;;;;;;;;;;;12.00;99.90;;;;;;5098264;28;19924;-74
2021/10/18 02:34:34;;;;;;;;;;;12.00;99.90;;;;;;5096954;28;19923;-74
2021/10/18 02:37:01;;;;;;;;;;;12.00;99.90;;;;;;5098260;28;19928;-75
2021/10/18 02:39:28;;;;;;;;;;;12.00;99.90;;;;;;5098017;28;19931;-74
2021/10/18 02:41:55;;;;;;;;;;;12.00;99.90;;;;;;5098088;28;19924;-74
2021/10/18 02:44:21;;;;;;;;;;;12.00;99.90;;;;;;5098091;28;19938;-74
2021/10/18 02:46:50;;;;;;;;;;;12.00;99.90;;;;;;5097999;28;19924;-74
2021/10/18 02:49:16;;;;;;;;;;;12.00;99.90;;;;;;5098148;28;19924;-74
2021/10/18 02:51:43;;;;;;;;;;;12.00;99.90;;;;;;5098001;28;19923;-74
2021/10/18 02:54:10;;;;;;;;;;;12.00;99.90;;;;;;5097955;28;19924;-75
2021/10/18 02:56:37;;;;;;;;;;;12.00;99.90;;;;;;5097942;28;19931;-74
2021/10/18 02:59:04;;;;;;;;;;;12.00;99.90;;;;;;5097772;28;19974;-74
2021/10/18 03:01:31;;;;;;;;;;;12.00;99.90;;;;;;5097887;28;19974;-74
2021/10/18 03:03:59;;;;;;;;;;;12.00;99.90;;;;;;5097829;28;19924;-74
2021/10/18 03:06:26;;;;;;;;;;;12.00;99.90;;;;;;5097554;28;19924;-74
2021/10/18 03:08:54;;;;;;;;;;;12.00;99.90;;;;;;5097705;28;20248;-74
2021/10/18 03:11:20;;;;;;;;;;;12.00;99.90;;;;;;5097561;28;19924;-74
2021/10/18 03:13:47;;;;;;;;;;;11.90;99.90;;;;;;5097337;28;20378;-74
2021/10/18 03:16:14;;;;;;;;;;;11.90;99.90;;;;;;5097339;28;19934;-74
2021/10/18 03:18:41;;;;;;;;;;;11.90;99.90;;;;;;5097465;28;19924;-74
2021/10/18 03:21:09;;;;;;;;;;;11.90;99.90;;;;;;5097613;28;19924;-74
2021/10/18 03:23:36;;;;;;;;;;;11.90;99.90;;;;;;5097238;28;19924;-74
2021/10/18 03:26:03;;;;;;;;;;;11.90;99.90;;;;;;5097281;28;19928;-74
2021/10/18 03:28:30;;;;;;;;;;;11.90;99.90;;;;;;5097317;28;19934;-74
2021/10/18 03:30:56;;;;;;;;;;;11.80;99.90;;;;;;5096345;28;19925;-74
2021/10/18 03:33:23;;;;;;;;;;;11.80;99.90;;;;;;5097368;28;19930;-74
2021/10/18 03:35:50;;;;;;;;;;;11.80;99.90;;;;;;5097076;28;19924;-74
2021/10/18 03:38:19;;;;;;;;;;;11.80;99.90;;;;;;5096738;28;19924;-75
2021/10/18 03:40:46;;;;;;;;;;;11.80;99.90;;;;;;5096951;28;19923;-74
2021/10/18 03:43:12;;;;;;;;;;;11.80;99.90;;;;;;5097038;28;19928;-74
2021/10/18 03:45:39;;;;;;;;;;;11.80;99.90;;;;;;5097070;28;19925;-74
2021/10/18 03:48:06;;;;;;;;;;;11.80;99.90;;;;;;5096758;28;19924;-74
2021/10/18 03:50:33;;;;;;;;;;;11.80;99.90;;;;;;5096866;28;19935;-74
2021/10/18 03:53:00;;;;;;;;;;;11.70;99.90;;;;;;5096718;28;19938;-74
2021/10/18 03:55:28;;;;;;;;;;;11.70;99.90;;;;;;5096574;28;20363;-74
2021/10/18 03:57:55;;;;;;;;;;;11.70;99.90;;;;;;5096527;28;19924;-74
2021/10/18 04:00:22;;;;;;;;;;;11.70;99.90;;;;;;5096630;28;19924;-74
2021/10/18 04:02:48;;;;;;;;;;;11.70;99.90;;;;;;5096546;28;20363;-74
2021/10/18 04:05:15;;;;;;;;;;;11.70;99.90;;;;;;5096354;28;19935;-74
2021/10/18 04:07:46;;;;;;;;;;;11.70;99.90;;;;;;5096522;28;19935;-74
2021/10/18 04:10:13;;;;;;;;;;;11.60;99.90;;;;;;5096268;28;19993;-74
2021/10/18 04:12:41;;;;;;;;;;;11.60;99.90;;;;;;5096506;28;19931;-74
2021/10/18 04:15:08;;;;;;;;;;;11.60;99.90;;;;;;5096341;28;20351;-75
2021/10/18 04:17:35;;;;;;;;;;;11.50;99.90;;;;;;5096495;28;19934;-74
2021/10/18 04:20:02;;;;;;;;;;;11.50;99.90;;;;;;5096113;28;20229;-74
2021/10/18 04:22:29;;;;;;;;;;;11.50;99.90;;;;;;5096140;28;19924;-74
2021/10/18 04:24:56;;;;;;;;;;;11.50;99.90;;;;;;5096019;28;19931;-74
2021/10/18 04:27:22;;;;;;;;;;;11.40;99.90;;;;;;5096225;28;19928;-75
2021/10/18 04:29:51;;;;;;;;;;;11.40;99.90;;;;;;5096263;28;19924;-74
2021/10/18 04:32:17;;;;;;;;;;;11.40;99.90;;;;;;5095994;28;19924;-74
2021/10/18 04:34:45;;;;;;;;;;;11.40;99.90;;;;;;5095870;28;19924;-75
2021/10/18 04:37:13;;;;;;;;;;;11.40;99.90;;;;;;5095700;28;19943;-75
2021/10/18 04:39:41;;;;;;;;;;;11.40;99.90;;;;;;5095387;28;19924;-75
2021/10/18 04:42:09;;;;;;;;;;;11.40;99.90;;;;;;5096020;28;19932;-74
2021/10/18 04:44:37;;;;;;;;;;;11.40;99.90;;;;;;5096033;28;19931;-74
2021/10/18 04:47:06;;;;;;;;;;;11.40;99.90;;;;;;5095931;28;19924;-75
2021/10/18 04:49:32;;;;;;;;;;;11.50;99.90;;;;;;5095949;28;19928;-75
2021/10/18 04:51:59;;;;;;;;;;;11.50;99.90;;;;;;5095681;28;19935;-74
2021/10/18 04:54:26;;;;;;;;;;;11.50;99.90;;;;;;5095797;28;20001;-74
2021/10/18 04:56:53;;;;;;;;;;;11.60;99.90;;;;;;5095656;28;19928;-74
2021/10/18 04:59:20;;;;;;;;;;;11.60;99.90;;;;;;5095044;28;19935;-74
2021/10/18 05:01:47;;;;;;;;;;;11.70;99.90;;;;;;5094764;28;19924;-74
2021/10/18 05:04:15;;;;;;;;;;;11.70;99.90;;;;;;5095520;28;20352;-74
2021/10/18 05:06:42;;;;;;;;;;;11.80;99.90;;;;;;5095478;28;19924;-74
2021/10/18 05:09:08;;;;;;;;;;;11.80;99.90;;;;;;5095761;28;19924;-74
2021/10/18 05:11:36;;;;;;;;;;;11.80;99.90;;;;;;5095474;28;19924;-74
2021/10/18 05:14:03;;;;;;;;;;;11.80;99.90;;;;;;5095320;28;20402;-74
2021/10/18 05:16:30;;;;;;;;;;;11.80;99.90;;;;;;5095299;28;19969;-74
2021/10/18 05:18:57;;;;;;;;;;;11.80;99.90;;;;;;5095382;28;19924;-74
2021/10/18 05:21:25;;;;;;;;;;;11.90;99.90;;;;;;5095230;28;20284;-74
2021/10/18 05:23:52;;;;;;;;;;;11.90;99.90;;;;;;5095253;28;19924;-74
2021/10/18 05:26:19;;;;;;;;;;;11.80;99.90;;;;;;5095344;28;19924;-74
2021/10/18 05:28:47;;;;;;;;;;;11.90;99.90;;;;;;5091493;28;20253;-75
2021/10/18 05:31:17;;;;;;;;;;;11.90;99.90;;;;;;5093532;28;19928;-75
2021/10/18 05:33:45;;;;;;;;;;;11.90;99.90;;;;;;5094940;28;19932;-75
2021/10/18 05:36:14;;;;;;;;;;;11.90;99.90;;;;;;5095256;28;19928;-75
2021/10/18 05:38:42;;;;;;;;;;;11.90;99.90;;;;;;5094573;28;19924;-75
2021/10/18 05:41:09;;;;;;;;;;;11.90;99.90;;;;;;5095226;28;19925;-75
2021/10/18 05:43:37;;;;;;;;;;;11.90;99.90;;;;;;5095117;28;20351;-75
2021/10/18 05:46:03;;;;;;;;;;;11.90;99.90;;;;;;5094987;28;20535;-74
2021/10/18 05:48:32;;;;;;;;;;;11.90;99.90;;;;;;5094822;28;19938;-74
2021/10/18 05:50:59;;;;;;;;;;;11.90;99.90;;;;;;5094761;28;19931;-74
2021/10/18 05:53:26;;;;;;;;;;;11.90;99.90;;;;;;5095931;28;19924;-74
2021/10/18 05:55:54;;;;;;;;;;;11.90;99.90;;;;;;5099055;28;19924;-74
2021/10/18 05:58:21;;;;;;;;;;;11.80;99.90;;;;;;5098640;28;19924;-74
2021/10/18 06:00:48;;;;;;;;;;;11.80;99.90;;;;;;5098739;28;19934;-74
2021/10/18 06:03:14;;;;;;;;;;;11.80;99.90;;;;;;5098712;28;19942;-74
2021/10/18 06:05:44;;;;;;;;;;;11.80;99.90;;;;;;5098630;28;19924;-74
2021/10/18 06:08:11;;;;;;;;;;;11.80;99.90;;;;;;5098806;28;19959;-75
2021/10/18 06:10:38;;;;;;;;;;;11.70;99.90;;;;;;5098394;28;19924;-74
2021/10/18 06:13:06;;;;;;;;;;;11.70;99.90;;;;;;5098576;28;19928;-74
2021/10/18 06:15:33;;;;;;;;;;;11.70;99.90;;;;;;5098606;28;20363;-74
2021/10/18 06:18:07;;;;;;;;;;;11.70;99.90;;;;;;5098397;28;19934;-75
2021/10/18 06:20:33;;;;;;;;;;;11.70;99.90;;;;;;5098367;28;20233;-74
2021/10/18 06:23:00;;;;;;;;;;;11.70;99.90;;;;;;5098382;28;19934;-75
2021/10/18 06:25:29;;;;;;;;;;;11.60;99.90;;;;;;5098482;28;19924;-74
2021/10/18 06:27:56;;;;;;;;;;;11.60;99.90;;;;;;5098175;28;19935;-74
2021/10/18 06:30:26;;;;;;;;;;;11.60;99.90;;;;;;5098359;28;19931;-74
2021/10/18 06:32:53;;;;;;;;;;;11.60;99.90;;;;;;5098297;28;19977;-74
2021/10/18 06:35:20;;;;;;;;;;;11.60;99.90;;;;;;5098169;28;19978;-74
2021/10/18 06:37:46;;;;;;;;;;;11.60;99.90;;;;;;5097457;28;19924;-74
2021/10/18 06:40:13;;;;;;;;;;;11.60;99.90;;;;;;5097254;28;19924;-74
2021/10/18 06:42:40;;;;;;;;;;;11.60;99.90;;;;;;5098048;28;19924;-74
2021/10/18 06:45:07;;;;;;;;;;;11.60;99.90;;;;;;5098107;28;20256;-74
2021/10/18 06:47:36;;;;;;;;;;;11.50;99.90;;;;;;5097978;28;19924;-74
2021/10/18 06:50:03;;;;;;;;;;;11.60;99.90;;;;;;5098123;28;19946;-74
2021/10/18 06:52:32;;;;;;;;;;;11.50;99.90;;;;;;5097920;28;19924;-74
2021/10/18 06:55:00;;;;;;;;;;;11.60;99.90;;;;;;5097773;28;19925;-74
2021/10/18 06:57:27;;;;;;;;;;;11.50;99.90;;;;;;5097905;28;19959;-74
2021/10/18 06:59:54;;;;;;;;;;;11.50;99.90;;;;;;5097861;28;19931;-74
2021/10/18 07:02:21;;;;;;;;;;;11.50;99.90;;;;;;5097705;28;20328;-74
2021/10/18 07:04:49;;;;;;;;;;;11.50;99.90;;;;;;5096634;28;20023;-74
2021/10/18 07:07:16;;;;;;;;;;;11.50;99.90;;;;;;5097629;28;19928;-74
2021/10/18 07:09:43;;;;;;;;;;;11.50;99.90;;;;;;5097500;28;20249;-74
2021/10/18 07:12:10;;;;;;;;;;;11.40;99.90;;;;;;5097396;28;19924;-74
2021/10/18 07:14:37;;;;;;;;;;;11.40;99.90;;;;;;5097455;28;19924;-74
2021/10/18 07:17:04;;;;;;;;;;;11.50;99.90;;;;;;5097682;28;19934;-74
2021/10/18 07:19:31;;;;;;;;;;;11.50;99.90;;;;;;5097374;28;19924;-74
2021/10/18 07:21:59;;;;;;;;;;;11.50;99.90;;;;;;5097269;28;19934;-74
2021/10/18 07:24:26;;;;;;;;;;;11.50;99.90;;;;;;5097198;28;19978;-74
2021/10/18 07:26:53;;;;;;;;;;;11.50;99.90;;;;;;5097218;28;19924;-74
2021/10/18 07:29:21;;;;;;;;;;;11.50;99.90;;;;;;5097397;28;19934;-74
2021/10/18 07:31:48;;;;;;;;;;;11.50;99.90;;;;;;5097096;28;20256;-74
2021/10/18 07:34:16;;;;;;;;;;;11.50;99.90;;;;;;5097149;28;19935;-74
2021/10/18 07:36:48;;;;;;;;;;;11.50;99.90;;;;;;5097241;28;19942;-74
2021/10/18 07:39:17;;;;;;;;;;;11.50;99.90;;;;;;5096780;28;20356;-74
2021/10/18 07:41:44;;;;;;;;;;;11.60;99.90;;;;;;5096937;28;19934;-74
2021/10/18 07:44:11;;;;;;;;;;;11.60;99.90;;;;;;5096896;28;19989;-74
2021/10/18 07:46:38;;;;;;;;;;;11.60;99.90;;;;;;5096838;28;20348;-74
2021/10/18 07:49:04;;;;;;;;;;;11.60;99.90;;;;;;5096951;28;19924;-74
2021/10/18 07:51:31;;;;;;;;;;;11.60;99.90;;;;;;5096919;28;19935;-74
2021/10/18 07:53:58;;;;;;;;;;;11.60;99.90;;;;;;5096586;28;19950;-74
2021/10/18 07:56:26;;;;;;;;;;;11.60;99.90;;;;;;5096559;28;20352;-74
2021/10/18 07:58:53;;;;;;;;;;;11.70;99.90;;;;;;5096625;28;19924;-74
2021/10/18 08:01:20;;;;;;;;;;;11.70;99.90;;;;;;5096609;28;19924;-74
2021/10/18 08:03:47;;;;;;;;;;;11.70;99.90;;;;;;5096490;28;19950;-74
2021/10/18 08:06:13;;;;;;;;;;;11.80;99.90;;;;;;5096554;28;19942;-74
2021/10/18 08:08:44;;;;;;;;;;;11.80;99.90;;;;;;5096411;28;19928;-74
2021/10/18 08:11:11;;;;;;;;;;;11.90;99.90;;;;;;5096651;28;20014;-75
2021/10/18 08:13:40;;;;;;;;;;;12.00;99.90;;;;;;5096497;28;19930;-75
2021/10/18 08:16:06;;;;;;;;;;;12.00;99.90;;;;;;5095929;28;20344;-75
2021/10/18 08:18:33;;;;;;;;;;;12.00;99.90;;;;;;5096267;28;19924;-74
2021/10/18 08:21:00;;;;;;;;;;;12.10;99.90;;;;;;5095987;28;19927;-75
2021/10/18 08:23:27;;;;;;;;;;;12.10;99.90;;;;;;5096158;28;19924;-74
2021/10/18 08:25:54;;;;;;;;;;;12.10;99.90;;;;;;5096271;28;19935;-74
2021/10/18 08:28:22;;;;;;;;;;;12.20;99.90;;;;;;5096172;28;19924;-75
2021/10/18 08:30:52;;;;;;;;;;;12.20;99.90;;;;;;5096138;28;19924;-74
2021/10/18 08:33:20;;;;;;;;;;;12.30;99.90;;;;;;5096061;28;19925;-75
2021/10/18 08:35:48;;;;;;;;;;;12.30;99.90;;;;;;5095974;28;19928;-75
2021/10/18 08:38:20;;;;;;;;;;;12.40;99.90;;;;;;5095737;28;19932;-75
2021/10/18 08:40:57;;;;;;;;;;;12.40;99.90;;;;;;5095880;28;20367;-74
2021/10/18 08:46:10;;;;;;;;;;;12.50;99.90;;;;;;5095409;28;19930;-75
2021/10/18 08:48:37;;;;;;;;;;;12.50;99.90;;;;;;5095643;28;19924;-74
2021/10/18 08:51:05;;;;;;;;;;;12.60;99.90;;;;;;5095736;28;19924;-75
2021/10/18 08:53:31;;;;;;;;;;;12.60;99.90;;;;;;5095590;28;19924;-74
2021/10/18 08:55:58;;;;;;;;;;;12.70;99.90;;;;;;5095805;28;19924;-75
2021/10/18 08:58:25;;;;;;;;;;;12.70;99.90;;;;;;5095726;28;19924;-75
2021/10/18 09:00:52;;;;;;;;;;;12.80;99.90;;;;;;5095546;28;19924;-75
2021/10/18 09:03:23;;;;;;;;;;;12.80;99.90;;;;;;5095526;28;19950;-75
2021/10/18 09:05:50;;;;;;;;;;;12.90;99.90;;;;;;5095612;28;19935;-73
2021/10/18 09:08:35;;;;;;;;;;;13.00;99.90;;;;;;5095652;28;19928;-73
2021/10/18 09:11:06;;;;;;;;;;;13.00;99.90;;;;;;5095519;28;19924;-73
2021/10/18 09:13:32;;;;;;;;;;;13.10;99.90;;;;;;5095424;28;19924;-73
2021/10/18 09:15:59;;;;;;;;;;;13.10;99.90;;;;;;5095309;28;19935;-73
2021/10/18 09:18:28;;;;;;;;;;;13.10;99.90;;;;;;5095306;28;19924;-73
2021/10/18 09:20:54;;;;;;;;;;;13.10;99.90;;;;;;5095184;28;19935;-73
2021/10/18 09:23:25;;;;;;;;;;;13.10;99.90;;;;;;5095278;28;19924;-73
2021/10/18 09:25:52;;;;;;;;;;;13.10;99.90;;;;;;5095346;28;20024;-73
2021/10/18 09:28:22;;;;;;;;;;;13.10;99.90;;;;;;5094641;28;19924;-75
2021/10/18 09:30:49;;;;;;;;;;;13.10;99.90;;;;;;5095360;28;19924;-75
2021/10/18 09:33:19;;;;;;;;;;;13.20;99.90;;;;;;5095232;28;19924;-75
2021/10/18 09:35:48;;;;;;;;;;;13.20;99.90;;;;;;5095214;28;19925;-75
2021/10/18 09:38:17;;;;;;;;;;;13.30;99.90;;;;;;5094891;28;19942;-73
2021/10/18 09:40:45;;;;;;;;;;;13.30;99.90;;;;;;5095029;28;19928;-73
2021/10/18 09:43:17;;;;;;;;;;;13.30;99.90;;;;;;5095257;28;19931;-73
2021/10/18 09:45:57;;;;;;;;;;;13.30;99.90;;;;;;5095281;28;19924;-73
2021/10/18 10:53:10;;;;;;;;;;;13.30;99.90;;;;;;5097861;28;19927;-77
2021/10/18 10:55:37;;;;;;;;;;;13.30;99.90;;;;;;5097796;28;20248;-77
2021/10/18 10:58:04;;;;;;;;;;;13.20;99.90;;;;;;5097748;28;20264;-78
2021/10/18 11:00:33;;;;;;;;;;;13.30;99.90;;;;;;5097673;28;19924;-79
2021/10/18 11:03:19;;;;;;;;;;;13.20;99.90;;;;;;5097667;28;20364;-77
2021/10/18 11:05:55;;;;;;;;;;;13.20;99.90;;;;;;5097816;28;19924;-78
2021/10/18 11:08:29;;;;;;;;;;;13.30;99.90;;;;;;5097581;28;19924;-81
2021/10/18 11:10:56;;;;;;;;;;;13.30;99.90;;;;;;5097729;28;19934;-80
2021/10/18 11:13:22;;;;;;;;;;;13.30;99.90;;;;;;5097541;28;19924;-79
2021/10/18 11:15:51;;;;;;;;;;;13.30;99.90;;;;;;5097575;28;19927;-80
2021/10/18 11:18:23;;;;;;;;;;;13.30;99.90;;;;;;5097425;28;19924;-79
2021/10/18 11:20:50;;;;;;;;;;;13.30;99.90;;;;;;5097489;28;19930;-80
2021/10/18 11:23:17;;;;;;;;;;;13.30;99.90;;;;;;5097401;28;19924;-80
2021/10/18 11:25:45;;;;;;;;;;;13.40;99.90;;;;;;5097544;28;19924;-79
2021/10/18 11:28:12;;;;;;;;;;;13.30;99.90;;;;;;5097227;28;20251;-79
2021/10/18 11:30:39;;;;;;;;;;;13.40;99.90;;;;;;5097259;28;19924;-80
2021/10/18 11:33:10;;;;;;;;;;;13.40;99.90;;;;;;5097183;28;19935;-80
2021/10/18 11:35:39;;;;;;;;;;;13.40;99.90;;;;;;5097202;28;20306;-81
2021/10/18 11:38:06;;;;;;;;;;;13.40;99.90;;;;;;5096723;28;19974;-79
2021/10/18 11:40:33;;;;;;;;;;;13.40;99.90;;;;;;5097168;28;19924;-79
2021/10/18 11:43:02;;;;;;;;;;;13.40;99.90;;;;;;5097225;28;19946;-77
2021/10/18 11:45:31;;;;;;;;;;;13.40;99.90;;;;;;5097198;28;19925;-75
2021/10/18 11:48:09;;;;;;;;;;;13.40;99.90;;;;;;5096733;28;20366;-74
2021/10/18 11:50:37;;;;;;;;;;;13.40;99.90;;;;;;5096603;28;19924;-74
2021/10/18 11:53:09;;;;;;;;;;;13.40;99.90;;;;;;5096450;28;19924;-74
2021/10/18 11:55:37;;;;;;;;;;;13.50;99.90;;;;;;5096654;28;19924;-74
2021/10/18 11:58:05;;;;;;;;;;;13.50;99.90;;;;;;5095826;28;19932;-74
2021/10/18 12:00:32;;;;;;;;;;;13.50;99.90;;;;;;5096732;28;19924;-74
2021/10/18 12:03:01;;;;;;;;;;;13.50;99.90;;;;;;5096765;28;19924;-74
2021/10/18 12:05:35;;;;;;;;;;;13.50;99.90;;;;;;5096675;28;20332;-74
2021/10/18 12:08:05;;;;;;;;;;;13.50;99.90;;;;;;5096335;28;19934;-74
2021/10/18 12:10:36;;;;;;;;;;;13.40;99.90;;;;;;5095856;28;21286;-74
2021/10/18 12:13:10;;;;;;;;;;;13.40;99.90;;;;;;5096335;28;19924;-74
2021/10/18 12:15:39;;;;;;;;;;;13.40;99.90;;;;;;5096628;28;19924;-74
2021/10/18 12:18:07;;;;;;;;;;;13.50;99.90;;;;;;5096233;28;19935;-74
2021/10/18 12:20:43;;;;;;;;;;;13.50;99.90;;;;;;5096139;28;19924;-74
2021/10/18 12:23:17;;;;;;;;;;;13.50;99.90;;;;;;5096003;28;20276;-74
2021/10/18 12:25:51;;;;;;;;;;;12.40;99.90;;;;;;5096256;28;19977;-75
2021/10/18 12:28:27;;;;;;;;;;;13.50;99.90;;;;;;5096058;28;20352;-74
2021/10/18 12:30:55;;;;;;;;;;;13.50;99.90;;;;;;5096385;28;19924;-71
2021/10/18 12:33:32;;;;;;;;;;;13.50;99.90;;;;;;5096198;28;19946;-72
2021/10/18 12:36:02;;;;;;;;;;;13.50;99.90;;;;;;5095883;28;20360;-73
2021/10/18 12:38:32;;;;;;;;;;;13.50;99.90;;;;;;5094344;28;19989;-72
2021/10/18 12:41:12;;;;;;;;;;;13.50;99.90;;;;;;5095792;28;19931;-70
2021/10/18 12:43:40;;;;;;;;;;;13.60;99.90;;;;;;5096195;28;20332;-70
2021/10/18 12:46:21;;;;;;;;;;;13.60;99.90;;;;;;5095884;28;19924;-70
2021/10/18 12:49:03;;;;;;;;;;;13.60;99.90;;;;;;5095681;28;19924;-70
2021/10/18 12:51:32;;;;;;;;;;;13.60;99.90;;;;;;5095868;28;20030;-73
2021/10/18 12:54:14;;;;;;;;;;;13.70;99.90;;;;;;5095566;28;19931;-71
2021/10/18 12:56:41;;;;;;;;;;;13.70;99.90;;;;;;5095734;28;20256;-70
2021/10/18 12:59:08;;;;;;;;;;;13.70;99.90;;;;;;5095441;28;19924;-70
2021/10/18 13:01:35;;;;;;;;;;;13.70;99.90;;;;;;5095476;28;19923;-71
2021/10/18 13:04:16;;;;;;;;;;;13.70;99.90;;;;;;5094811;28;19935;-71
2021/10/18 13:06:44;;;;;;;;;;;13.70;99.90;;;;;;5095567;28;19924;-71
2021/10/18 13:09:11;;;;;;;;;;;13.80;99.90;;;;;;5094645;28;19924;-71
2021/10/18 13:11:40;;;;;;;;;;;13.80;99.90;;;;;;5095496;28;19924;-71
2021/10/18 13:14:07;;;;;;;;;;;13.80;99.90;;;;;;5095388;28;20341;-71
2021/10/18 13:16:34;;;;;;;;;;;13.80;99.90;;;;;;5095481;28;19934;-72
2021/10/18 13:19:01;;;;;;;;;;;13.80;99.90;;;;;;5095405;28;19928;-71
2021/10/18 13:21:30;;;;;;;;;;;13.80;99.90;;;;;;5095114;28;20356;-72
2021/10/18 13:23:58;;;;;;;;;;;13.80;99.90;;;;;;5095154;28;19977;-71
2021/10/18 13:26:25;;;;;;;;;;;13.80;99.90;;;;;;5095176;28;19924;-71
2021/10/18 13:28:51;;;;;;;;;;;13.90;99.90;;;;;;5095270;28;19924;-71
2021/10/18 13:31:18;;;;;;;;;;;13.90;99.90;;;;;;5095111;28;20329;-71
2021/10/18 13:33:45;;;;;;;;;;;13.90;99.90;;;;;;5095077;28;19924;-72
2021/10/18 13:36:12;;;;;;;;;;;13.90;99.90;;;;;;5095161;28;19935;-72
2021/10/18 13:38:39;;;;;;;;;;;14.00;99.90;;;;;;5094968;28;19931;-72
2021/10/18 13:41:08;;;;;;;;;;;14.00;99.90;;;;;;5095241;28;20271;-71
2021/10/18 13:43:35;;;;;;;;;;;14.00;99.90;;;;;;5095255;28;19931;-72
2021/10/18 13:46:02;;;;;;;;;;;14.00;99.90;;;;;;5094997;28;19923;-72
2021/10/18 13:48:29;;;;;;;;;;;14.00;99.90;;;;;;5095151;28;19977;-71
2021/10/18 13:50:56;;;;;;;;;;;14.10;99.90;;;;;;5094957;28;19946;-71
2021/10/18 13:53:23;;;;;;;;;;;14.10;99.90;;;;;;5094929;28;19931;-85
2021/10/18 13:55:51;;;;;;;;;;;14.10;99.90;;;;;;5094974;28;19924;-71
2021/10/18 13:58:21;;;;;;;;;;;14.10;99.90;;;;;;5094957;28;19924;-71
2021/10/18 14:00:48;;;;;;;;;;;14.20;99.90;;;;;;5094932;28;19925;-71
2021/10/18 14:03:19;;;;;;;;;;;14.20;99.90;;;;;;5094865;28;19924;-71
2021/10/18 14:05:47;;;;;;;;;;;14.20;99.90;;;;;;5094986;28;20027;-71
2021/10/18 14:08:15;;;;;;;;;;;14.20;99.90;;;;;;5094923;28;20267;-71
2021/10/18 14:10:45;;;;;;;;;;;14.20;99.90;;;;;;5094659;28;19934;-71
2021/10/18 14:13:15;;;;;;;;;;;14.20;99.90;;;;;;5094959;28;19931;-71
2021/10/18 14:15:45;;;;;;;;;;;14.20;99.90;;;;;;5097937;28;20267;-71
2021/10/18 14:18:15;;;;;;;;;;;14.20;99.90;;;;;;5098594;28;19942;-71
2021/10/18 14:20:43;;;;;;;;;;;14.20;99.90;;;;;;5098520;28;19934;-71
2021/10/18 14:23:11;;;;;;;;;;;14.20;99.90;;;;;;5098612;28;19923;-71
2021/10/18 14:25:39;;;;;;;;;;;14.30;99.90;;;;;;5098533;28;19924;-71
2021/10/18 14:28:06;;;;;;;;;;;14.20;99.90;;;;;;5098442;28;20263;-71
2021/10/18 14:30:33;;;;;;;;;;;14.20;99.90;;;;;;5098242;28;19925;-71
2021/10/18 14:33:02;;;;;;;;;;;14.20;99.90;;;;;;5097908;28;20026;-71
2021/10/18 14:35:28;;;;;;;;;;;14.30;99.90;;;;;;5098128;28;19924;-71
2021/10/18 14:37:55;;;;;;;;;;;14.30;99.90;;;;;;5098206;28;20361;-71
2021/10/18 14:40:22;;;;;;;;;;;14.30;99.90;;;;;;5098093;28;19924;-71
2021/10/18 14:42:50;;;;;;;;;;;14.30;99.90;;;;;;5098123;28;19924;-71
2021/10/18 14:45:18;;;;;;;;;;;14.30;99.90;;;;;;5098158;28;19924;-71
2021/10/18 14:47:47;;;;;;;;;;;14.30;99.90;;;;;;5098032;28;20241;-71
2021/10/18 14:50:20;;;;;;;;;;;14.40;99.90;;;;;;5098023;28;20023;-71
2021/10/18 14:52:48;;;;;;;;;;;14.30;99.90;;;;;;5098119;28;19924;-71
2021/10/18 14:55:16;;;;;;;;;;;14.30;99.90;;;;;;5097825;28;20341;-71
2021/10/18 14:57:43;;;;;;;;;;;14.40;99.90;;;;;;5097730;28;19981;-71
2021/10/18 15:00:12;;;;;;;;;;;14.40;99.90;;;;;;5097843;28;20034;-71
2021/10/18 15:02:44;;;;;;;;;;;14.40;99.90;;;;;;5097609;28;19924;-71
2021/10/18 15:05:11;;;;;;;;;;;14.40;99.90;;;;;;5097738;28;20284;-71
2021/10/18 15:07:39;;;;;;;;;;;14.40;99.90;;;;;;5097675;28;20347;-71
2021/10/18 15:10:10;;;;;;;;;;;14.40;99.90;;;;;;5097916;28;19924;-70
2021/10/18 15:12:38;;;;;;;;;;;14.50;99.90;;;;;;5097578;28;19935;-71
2021/10/18 15:15:06;;;;;;;;;;;14.50;99.90;;;;;;5097427;28;20255;-71
2021/10/18 15:17:35;;;;;;;;;;;14.50;99.90;;;;;;5097439;28;19924;-70
2021/10/18 15:20:02;;;;;;;;;;;14.50;99.90;;;;;;5097578;28;19946;-70
2021/10/18 15:22:30;;;;;;;;;;;14.50;99.90;;;;;;5097293;28;20240;-71
2021/10/18 15:25:00;;;;;;;;;;;14.60;99.90;;;;;;5097357;28;19931;-71
2021/10/18 15:27:29;;;;;;;;;;;14.60;99.90;;;;;;5096316;28;19924;-71
2021/10/18 15:29:57;;;;;;;;;;;14.60;99.90;;;;;;5097250;28;19924;-70